Time;durP1;ratioP1;P1;durP2;ratioP2;P2;SDS_P1;SDS_P2;PMS_P1;PMS_P2;Temp;Humidity;BMP_temperature;BMP_pressure;BME280_temperature;BME280_humidity;BME280_pressure;Samples;Min_cycle;Max_cycle;Signal;HPM_P1;HPM_P2
2021/04/05 00:04:26;;;;;;;;;48.25;42.75;;;;;;;;12008338;29;8895;-58
2021/04/05 00:10:33;;;;;;;;;46.50;42.25;;;;;;;;12010551;29;8903;-58
2021/04/05 00:16:35;;;;;;;;;43.25;37.75;;;;;;;;12006642;29;8899;-58
2021/04/05 00:22:37;;;;;;;;;53.00;41.75;;;;;;;;12008579;29;8895;-58
2021/04/05 00:28:39;;;;;;;;;42.50;39.25;;;;;;;;12008876;29;9140;-57
2021/04/05 00:34:41;;;;;;;;;44.00;40.50;;;;;;;;12006959;29;8888;-57
2021/04/05 00:40:52;;;;;;;;;47.25;39.00;;;;;;;;12009345;29;8880;-58
2021/04/05 00:46:54;;;;;;;;;54.75;48.25;;;;;;;;12006591;29;9011;-57
2021/04/05 00:52:58;;;;;;;;;47.00;43.75;;;;;;;;12007633;29;8876;-58
2021/04/05 00:59:00;;;;;;;;;49.00;43.75;;;;;;;;12007622;29;9661;-57
2021/04/05 01:05:02;;;;;;;;;54.50;44.00;;;;;;;;12006209;29;9002;-58
2021/04/05 01:11:05;;;;;;;;;42.25;38.50;;;;;;;;12013370;29;8861;-57
2021/04/05 01:17:06;;;;;;;;;44.75;41.75;;;;;;;;12051619;29;8910;-58
2021/04/05 01:23:08;;;;;;;;;50.50;44.25;;;;;;;;12052118;29;8926;-57
2021/04/05 01:29:09;;;;;;;;;47.75;42.50;;;;;;;;12055474;29;8881;-58
2021/04/05 01:35:11;;;;;;;;;50.25;44.75;;;;;;;;12059717;29;8881;-57
2021/04/05 01:41:27;;;;;;;;;51.50;45.25;;;;;;;;12060226;29;8891;-58
2021/04/05 01:47:29;;;;;;;;;47.25;43.75;;;;;;;;12059339;29;9618;-57
2021/04/05 01:53:32;;;;;;;;;61.50;48.00;;;;;;;;12058935;29;8896;-57
2021/04/05 01:59:34;;;;;;;;;54.50;45.25;;;;;;;;12057556;29;8921;-59
2021/04/05 02:05:52;;;;;;;;;49.25;43.75;;;;;;;;12055801;29;8877;-56
2021/04/05 02:11:54;;;;;;;;;35.75;32.25;;;;;;;;12059886;29;8891;-57
2021/04/05 02:17:55;;;;;;;;;59.00;46.50;;;;;;;;12057886;29;8955;-56
2021/04/05 02:24:04;;;;;;;;;53.25;46.75;;;;;;;;12059019;29;9115;-57
2021/04/05 02:30:06;;;;;;;;;53.75;43.25;;;;;;;;12056377;29;9611;-58
2021/04/05 02:36:11;;;;;;;;;57.75;45.25;;;;;;;;12057923;29;8861;-57
2021/04/05 02:42:13;;;;;;;;;53.50;48.00;;;;;;;;12057440;29;8892;-58
2021/04/05 02:48:15;;;;;;;;;47.75;41.50;;;;;;;;12056150;29;9662;-58
2021/04/05 02:54:18;;;;;;;;;48.50;43.25;;;;;;;;12013227;29;9605;-57
2021/04/05 03:00:20;;;;;;;;;56.25;46.25;;;;;;;;12010663;29;8898;-57
2021/04/05 03:06:24;;;;;;;;;48.25;42.00;;;;;;;;12011353;29;8879;-57
2021/04/05 03:12:27;;;;;;;;;54.25;43.75;;;;;;;;12011203;29;8883;-57
2021/04/05 03:18:32;;;;;;;;;48.75;41.50;;;;;;;;12010148;29;8881;-57
2021/04/05 03:24:36;;;;;;;;;60.25;48.50;;;;;;;;12012218;29;8856;-59
2021/04/05 03:30:43;;;;;;;;;54.75;48.00;;;;;;;;12009442;29;8867;-58
2021/04/05 03:36:54;;;;;;;;;58.75;48.75;;;;;;;;12010815;29;8848;-59
2021/04/05 03:43:04;;;;;;;;;54.00;47.00;;;;;;;;12009521;29;8902;-58
2021/04/05 03:49:21;;;;;;;;;54.75;46.75;;;;;;;;12009032;29;9327;-57
2021/04/05 03:55:27;;;;;;;;;52.75;45.00;;;;;;;;12010154;29;8916;-58
2021/04/05 04:01:30;;;;;;;;;52.75;44.75;;;;;;;;12434283;23;8876;-53
2021/04/05 04:07:47;;;;;;;;;56.00;46.00;;;;;;;;12081426;29;8863;-50
2021/04/05 04:13:52;;;;;;;;;57.50;46.50;;;;;;;;12080106;29;9014;-49
2021/04/05 04:19:55;;;;;;;;;57.75;46.00;;;;;;;;12058594;29;8877;-52
2021/04/05 04:25:56;;;;;;;;;53.25;45.75;;;;;;;;12064745;29;8888;-52
2021/04/05 04:31:59;;;;;;;;;54.50;43.75;;;;;;;;12055859;29;8904;-50
2021/04/05 04:38:01;;;;;;;;;50.75;45.00;;;;;;;;12066516;29;8874;-51
2021/04/05 04:44:04;;;;;;;;;43.75;41.75;;;;;;;;12060498;29;8909;-52
2021/04/05 04:50:06;;;;;;;;;48.50;42.75;;;;;;;;12056368;29;8869;-53
2021/04/05 04:56:08;;;;;;;;;56.25;47.75;;;;;;;;12055754;29;8865;-53
2021/04/05 05:02:10;;;;;;;;;54.50;45.75;;;;;;;;12055511;29;8877;-53
2021/04/05 05:08:11;;;;;;;;;44.75;43.00;;;;;;;;12095099;29;8890;-52
2021/04/05 05:14:14;;;;;;;;;59.75;48.50;;;;;;;;12083704;29;9662;-53
2021/04/05 05:20:19;;;;;;;;;51.75;45.00;;;;;;;;12061470;29;8877;-52
2021/04/05 05:26:23;;;;;;;;;54.75;47.75;;;;;;;;12060302;29;8924;-55
2021/04/05 05:32:25;;;;;;;;;63.25;52.00;;;;;;;;12060900;29;8865;-52
2021/04/05 05:38:27;;;;;;;;;52.50;47.00;;;;;;;;12059148;29;8873;-52
2021/04/05 05:44:55;;;;;;;;;59.50;47.75;;;;;;;;12058777;29;9283;-51
2021/04/05 05:51:16;;;;;;;;;52.25;44.00;;;;;;;;12060518;29;8978;-52
2021/04/05 05:57:26;;;;;;;;;49.25;43.50;;;;;;;;12058203;29;8908;-53
2021/04/05 06:03:34;;;;;;;;;46.00;41.50;;;;;;;;12059675;29;8907;-56
2021/04/05 06:10:03;;;;;;;;;54.25;46.75;;;;;;;;12059176;29;8932;-53
2021/04/05 06:16:23;;;;;;;;;51.25;43.00;;;;;;;;12061195;29;8861;-50
2021/04/05 06:22:39;;;;;;;;;50.25;45.50;;;;;;;;12055914;29;8908;-56
2021/04/05 06:29:08;;;;;;;;;53.75;46.00;;;;;;;;12051624;29;9745;-55
2021/04/05 06:35:29;;;;;;;;;48.25;41.50;;;;;;;;12078518;29;9040;-52
2021/04/05 06:41:33;;;;;;;;;48.50;40.50;;;;;;;;12097769;29;8944;-54
2021/04/05 06:47:58;;;;;;;;;52.75;44.00;;;;;;;;12096511;29;8897;-54
2021/04/05 06:54:37;;;;;;;;;38.75;36.75;;;;;;;;12097363;29;8894;-56
2021/04/05 07:00:44;;;;;;;;;51.00;42.25;;;;;;;;12097154;29;8905;-56
2021/04/05 07:07:14;;;;;;;;;41.00;37.00;;;;;;;;12067914;29;8882;-54
2021/04/05 07:13:40;;;;;;;;;33.00;31.75;;;;;;;;12054296;29;8877;-58
2021/04/05 07:19:55;;;;;;;;;33.00;30.25;;;;;;;;12047883;29;8877;-51
2021/04/05 07:26:14;;;;;;;;;37.00;32.25;;;;;;;;12052804;29;8896;-51
2021/04/05 07:32:52;;;;;;;;;31.50;29.50;;;;;;;;12050830;29;8911;-52
2021/04/05 07:38:54;;;;;;;;;29.50;28.00;;;;;;;;12055421;29;8869;-55
2021/04/05 07:45:08;;;;;;;;;33.75;31.25;;;;;;;;12049977;29;9587;-56
2021/04/05 07:51:36;;;;;;;;;37.00;35.25;;;;;;;;12052306;29;8869;-54
2021/04/05 07:58:00;;;;;;;;;26.75;26.00;;;;;;;;12073502;29;8891;-55
2021/04/05 08:04:11;;;;;;;;;35.50;30.50;;;;;;;;12094735;29;8908;-55
2021/04/05 08:10:25;;;;;;;;;24.75;18.25;;;;;;;;12093738;29;8862;-54
2021/04/05 08:16:53;;;;;;;;;25.25;24.00;;;;;;;;12058376;29;8869;-58
2021/04/05 08:23:30;;;;;;;;;29.25;26.75;;;;;;;;12091174;29;8895;-55
2021/04/05 08:29:39;;;;;;;;;29.00;25.25;;;;;;;;12094377;29;8871;-54
2021/04/05 08:35:44;;;;;;;;;25.75;22.75;;;;;;;;12086453;29;8861;-51
2021/04/05 08:41:54;;;;;;;;;26.75;24.75;;;;;;;;12059992;29;8888;-54
2021/04/05 08:48:09;;;;;;;;;17.75;15.75;;;;;;;;12061805;29;8872;-55
2021/04/05 08:54:15;;;;;;;;;20.25;18.50;;;;;;;;12044771;29;8861;-52
2021/04/05 09:00:17;;;;;;;;;28.00;25.50;;;;;;;;12057580;29;8884;-50
2021/04/05 09:06:32;;;;;;;;;22.75;22.75;;;;;;;;12077523;29;9889;-55
2021/04/05 09:12:35;;;;;;;;;24.75;21.25;;;;;;;;12084619;29;8901;-51
2021/04/05 09:19:17;;;;;;;;;27.75;25.00;;;;;;;;12048904;29;8861;-55
2021/04/05 09:25:43;;;;;;;;;21.25;20.75;;;;;;;;12045267;29;8900;-55
2021/04/05 09:32:08;;;;;;;;;18.00;18.00;;;;;;;;12042241;29;8897;-53
2021/04/05 09:38:47;;;;;;;;;25.25;22.00;;;;;;;;12044228;29;9012;-54
2021/04/05 09:45:14;;;;;;;;;12.00;12.00;;;;;;;;12060886;29;9662;-55
2021/04/05 09:51:45;;;;;;;;;18.50;18.50;;;;;;;;12081107;29;8878;-56
2021/04/05 09:57:55;;;;;;;;;25.50;21.00;;;;;;;;12099226;29;8878;-56
2021/04/05 10:04:05;;;;;;;;;21.67;21.33;;;;;;;;12050694;29;8964;-56
2021/04/05 10:10:09;;;;;;;;;24.00;21.75;;;;;;;;12052198;29;8919;-53
2021/04/05 10:16:13;;;;;;;;;23.75;21.75;;;;;;;;12063477;29;8877;-54
2021/04/05 10:22:18;;;;;;;;;33.33;29.00;;;;;;;;12051609;29;8881;-57
2021/04/05 10:28:21;;;;;;;;;17.00;16.67;;;;;;;;12067442;29;9653;-55
2021/04/05 10:34:28;;;;;;;;;24.25;24.00;;;;;;;;12051971;29;8865;-56
2021/04/05 10:40:30;;;;;;;;;20.75;20.25;;;;;;;;12066861;29;8961;-55
2021/04/05 10:46:39;;;;;;;;;24.67;22.67;;;;;;;;12063177;29;8889;-53
2021/04/05 10:52:43;;;;;;;;;17.67;17.67;;;;;;;;12052149;29;8875;-54
2021/04/05 10:59:08;;;;;;;;;18.67;18.67;;;;;;;;12052419;29;8924;-52
2021/04/05 11:05:12;;;;;;;;;23.50;20.00;;;;;;;;12051389;29;8940;-54
2021/04/05 11:11:17;;;;;;;;;19.67;19.67;;;;;;;;12055046;29;9033;-55
2021/04/05 11:17:22;;;;;;;;;16.67;14.67;;;;;;;;12063349;29;9008;-53
2021/04/05 11:23:32;;;;;;;;;20.75;20.75;;;;;;;;12052667;29;8896;-57
2021/04/05 11:29:38;;;;;;;;;20.00;18.00;;;;;;;;12050853;29;9016;-53
2021/04/05 11:35:41;;;;;;;;;18.50;18.25;;;;;;;;12051558;29;8900;-58
2021/04/05 11:41:46;;;;;;;;;20.25;19.25;;;;;;;;12049425;29;8889;-55
2021/04/05 11:47:51;;;;;;;;;22.25;22.25;;;;;;;;12047071;29;8912;-55
2021/04/05 11:53:59;;;;;;;;;23.00;20.67;;;;;;;;12062498;29;8889;-56
2021/04/05 12:00:08;;;;;;;;;19.67;17.00;;;;;;;;12049542;29;8980;-55
2021/04/05 12:06:31;;;;;;;;;28.75;23.75;;;;;;;;12062024;29;8886;-55
2021/04/05 12:12:40;;;;;;;;;17.75;17.50;;;;;;;;12082722;29;8862;-56
2021/04/05 12:18:44;;;;;;;;;13.50;13.50;;;;;;;;12049043;29;8885;-55
2021/04/05 12:24:50;;;;;;;;;46.00;40.75;;;;;;;;12044641;29;9674;-53
2021/04/05 12:30:54;;;;;;;;;16.67;13.33;;;;;;;;12044005;29;8858;-56
2021/04/05 12:36:58;;;;;;;;;17.50;17.50;;;;;;;;12065694;29;8881;-53
2021/04/05 12:43:13;;;;;;;;;20.67;20.00;;;;;;;;12066441;29;8878;-55
2021/04/05 12:49:28;;;;;;;;;15.00;13.67;;;;;;;;12044082;29;9646;-54
2021/04/05 12:55:35;;;;;;;;;18.25;16.75;;;;;;;;12081669;29;8882;-51
2021/04/05 13:01:48;;;;;;;;;12.00;11.75;;;;;;;;12070840;29;8901;-53
2021/04/05 13:08:01;;;;;;;;;15.50;13.00;;;;;;;;12069602;29;8927;-56
2021/04/05 13:14:08;;;;;;;;;15.00;15.00;;;;;;;;12077321;29;8924;-55
2021/04/05 13:20:13;;;;;;;;;10.67;9.00;;;;;;;;12076089;29;8859;-51
2021/04/05 13:26:43;;;;;;;;;11.00;8.00;;;;;;;;12056393;29;8865;-53
2021/04/05 13:32:48;;;;;;;;;10.00;10.00;;;;;;;;12058912;29;8873;-56
2021/04/05 13:39:21;;;;;;;;;9.00;9.00;;;;;;;;12060654;29;8869;-54
2021/04/05 13:45:33;;;;;;;;;10.00;10.00;;;;;;;;12057381;29;8885;-55
2021/04/05 13:51:35;;;;;;;;;8.25;6.50;;;;;;;;12071856;29;9686;-53
2021/04/05 13:57:47;;;;;;;;;8.25;8.25;;;;;;;;12051375;29;9662;-54
2021/04/05 14:03:55;;;;;;;;;10.25;9.75;;;;;;;;12055460;29;8907;-52
2021/04/05 14:09:56;;;;;;;;;8.00;8.00;;;;;;;;12055964;29;8861;-50
2021/04/05 14:16:01;;;;;;;;;8.00;8.00;;;;;;;;12060237;29;8873;-54
2021/04/05 14:22:13;;;;;;;;;8.00;7.33;;;;;;;;12104608;29;8882;-58
2021/04/05 14:28:23;;;;;;;;;9.00;9.00;;;;;;;;12103941;29;9029;-54
2021/04/05 14:34:27;;;;;;;;;7.50;5.75;;;;;;;;12104028;29;8866;-55
2021/04/05 14:40:36;;;;;;;;;7.50;7.50;;;;;;;;12102464;29;8895;-55
2021/04/05 14:46:45;;;;;;;;;6.50;6.50;;;;;;;;12103874;29;8858;-54
2021/04/05 14:52:56;;;;;;;;;7.00;7.00;;;;;;;;12103092;29;8858;-55
2021/04/05 14:58:59;;;;;;;;;11.75;11.75;;;;;;;;12102402;29;8870;-56
2021/04/05 15:05:00;;;;;;;;;7.50;7.50;;;;;;;;12102170;29;8898;-51
2021/04/05 15:11:02;;;;;;;;;8.75;5.00;;;;;;;;12101657;29;8925;-55
2021/04/05 15:17:06;;;;;;;;;5.25;5.25;;;;;;;;12058805;29;8881;-56
2021/04/05 15:23:09;;;;;;;;;7.00;7.00;;;;;;;;12055600;29;8869;-52
2021/04/05 15:29:14;;;;;;;;;9.00;7.00;;;;;;;;12056532;29;8877;-54
2021/04/05 15:35:19;;;;;;;;;7.00;5.75;;;;;;;;12069878;29;8921;-56
2021/04/05 15:41:32;;;;;;;;;12.50;8.50;;;;;;;;12054405;29;8892;-54
2021/04/05 15:47:45;;;;;;;;;6.75;6.75;;;;;;;;12083766;29;8893;-54
2021/04/05 15:53:49;;;;;;;;;6.00;6.00;;;;;;;;12099301;29;8877;-53
2021/04/05 16:00:00;;;;;;;;;5.75;5.75;;;;;;;;12101119;29;8859;-53
2021/04/05 16:06:09;;;;;;;;;9.50;6.75;;;;;;;;12060633;29;8885;-53
2021/04/05 16:12:29;;;;;;;;;6.25;6.25;;;;;;;;12054529;29;8850;-49
2021/04/05 16:18:46;;;;;;;;;9.25;7.25;;;;;;;;12054049;29;8892;-53
2021/04/05 16:24:57;;;;;;;;;6.25;6.00;;;;;;;;12053358;29;8885;-53
2021/04/05 16:31:03;;;;;;;;;5.75;5.75;;;;;;;;12068349;29;8878;-51
2021/04/05 16:37:23;;;;;;;;;7.00;7.00;;;;;;;;12053011;29;8880;-51
2021/04/05 16:43:29;;;;;;;;;6.50;6.50;;;;;;;;12054444;29;8869;-52
2021/04/05 16:49:34;;;;;;;;;10.00;9.25;;;;;;;;12052994;29;8858;-52
2021/04/05 16:55:36;;;;;;;;;12.75;10.00;;;;;;;;12054160;29;8986;-53
2021/04/05 17:01:43;;;;;;;;;11.75;10.25;;;;;;;;12058680;29;8881;-52
2021/04/05 17:07:57;;;;;;;;;9.75;9.00;;;;;;;;12087971;29;8886;-49
2021/04/05 17:14:07;;;;;;;;;10.00;10.00;;;;;;;;12108562;29;8855;-54
2021/04/05 17:20:11;;;;;;;;;12.50;9.75;;;;;;;;12106177;29;8872;-53
2021/04/05 17:26:21;;;;;;;;;12.00;12.00;;;;;;;;12107817;29;8859;-51
2021/04/05 17:32:31;;;;;;;;;17.50;16.50;;;;;;;;12105603;29;8843;-52
2021/04/05 17:38:39;;;;;;;;;12.25;12.25;;;;;;;;12106121;29;8886;-53
2021/04/05 17:44:43;;;;;;;;;15.50;15.00;;;;;;;;12105820;29;8851;-55
2021/04/05 17:51:01;;;;;;;;;11.00;10.75;;;;;;;;12105242;29;8909;-50
2021/04/05 17:57:17;;;;;;;;;17.00;15.50;;;;;;;;12106333;29;8859;-52
2021/04/05 18:03:30;;;;;;;;;15.50;13.50;;;;;;;;12103895;29;8878;-54
2021/04/05 18:09:49;;;;;;;;;14.00;14.00;;;;;;;;12105519;29;8858;-52
2021/04/05 18:16:05;;;;;;;;;20.50;19.00;;;;;;;;12118753;29;8886;-52
2021/04/05 18:22:29;;;;;;;;;21.75;21.00;;;;;;;;12105337;29;8850;-50
2021/04/05 18:28:40;;;;;;;;;22.25;22.25;;;;;;;;12103572;29;8895;-55
2021/04/05 18:35:18;;;;;;;;;24.00;24.00;;;;;;;;12104059;29;8906;-56
2021/04/05 18:41:21;;;;;;;;;23.00;20.50;;;;;;;;12103313;29;8877;-52
2021/04/05 18:47:34;;;;;;;;;25.50;21.75;;;;;;;;12103102;29;9510;-52
2021/04/05 18:53:50;;;;;;;;;22.50;21.25;;;;;;;;12103590;29;8854;-52
2021/04/05 18:59:57;;;;;;;;;29.75;24.25;;;;;;;;12101635;29;8873;-55
2021/04/05 19:06:14;;;;;;;;;24.50;23.25;;;;;;;;12102808;29;9660;-53
2021/04/05 19:12:42;;;;;;;;;28.25;26.25;;;;;;;;12101782;29;9625;-50
2021/04/05 19:19:06;;;;;;;;;35.75;32.75;;;;;;;;12059131;29;8873;-52
2021/04/05 19:25:27;;;;;;;;;33.50;33.25;;;;;;;;12056373;29;9640;-51
2021/04/05 19:31:50;;;;;;;;;32.25;28.75;;;;;;;;12057669;29;9680;-52
2021/04/05 19:37:59;;;;;;;;;38.00;31.00;;;;;;;;12055448;29;8881;-52
2021/04/05 19:44:14;;;;;;;;;32.00;30.75;;;;;;;;12055771;29;8873;-53
2021/04/05 19:50:23;;;;;;;;;29.00;25.25;;;;;;;;12055241;29;8857;-52
2021/04/05 19:56:33;;;;;;;;;29.00;26.75;;;;;;;;12055200;29;8884;-54
2021/04/05 20:02:44;;;;;;;;;24.75;24.50;;;;;;;;12055363;29;8861;-52
2021/04/05 20:09:06;;;;;;;;;27.75;26.50;;;;;;;;12053994;29;8853;-52
2021/04/05 20:15:11;;;;;;;;;21.50;19.75;;;;;;;;12069124;29;9037;-47
2021/04/05 20:21:23;;;;;;;;;25.50;22.75;;;;;;;;12052982;29;8876;-52
2021/04/05 20:28:01;;;;;;;;;25.75;23.00;;;;;;;;12054715;29;9646;-53
2021/04/05 20:34:36;;;;;;;;;25.00;24.00;;;;;;;;12082661;29;8875;-50
2021/04/05 20:40:55;;;;;;;;;28.25;25.00;;;;;;;;12100134;29;8869;-51
2021/04/05 20:46:59;;;;;;;;;23.25;22.00;;;;;;;;12112188;29;8883;-52
2021/04/05 20:53:04;;;;;;;;;23.25;23.00;;;;;;;;12112942;29;8901;-49
2021/04/05 20:59:09;;;;;;;;;25.50;24.25;;;;;;;;12098983;29;8870;-51
2021/04/05 21:05:13;;;;;;;;;25.50;24.25;;;;;;;;12097223;29;8879;-50
2021/04/05 21:11:19;;;;;;;;;30.25;27.00;;;;;;;;12054129;29;8962;-52
2021/04/05 21:17:40;;;;;;;;;23.00;22.50;;;;;;;;12051996;29;9618;-51
2021/04/05 21:23:45;;;;;;;;;26.75;25.50;;;;;;;;12053485;29;8865;-51
2021/04/05 21:29:56;;;;;;;;;23.50;20.75;;;;;;;;12051505;29;8865;-54
2021/04/05 21:36:18;;;;;;;;;19.50;19.50;;;;;;;;12053063;29;8916;-52
2021/04/05 21:42:29;;;;;;;;;25.75;22.50;;;;;;;;12051894;29;8862;-54
2021/04/05 21:48:32;;;;;;;;;23.50;23.50;;;;;;;;12058366;29;8873;-51
2021/04/05 21:54:42;;;;;;;;;22.75;20.25;;;;;;;;12060959;29;8939;-53
2021/04/05 22:00:47;;;;;;;;;26.50;26.00;;;;;;;;12058909;29;8873;-51
2021/04/05 22:06:52;;;;;;;;;30.25;30.25;;;;;;;;12060269;29;8893;-53
2021/04/05 22:13:06;;;;;;;;;30.00;26.50;;;;;;;;12059233;29;8877;-53
2021/04/05 22:19:23;;;;;;;;;32.50;28.50;;;;;;;;12057813;29;8975;-49
2021/04/05 22:25:35;;;;;;;;;31.00;26.00;;;;;;;;12057791;29;8873;-52
2021/04/05 22:31:48;;;;;;;;;24.75;22.75;;;;;;;;12084476;29;8855;-49
2021/04/05 22:37:49;;;;;;;;;31.75;29.00;;;;;;;;12104269;29;8858;-50
2021/04/05 22:43:52;;;;;;;;;24.75;24.75;;;;;;;;12103145;29;8881;-51
2021/04/05 22:50:00;;;;;;;;;29.75;27.50;;;;;;;;12103760;29;8863;-53
2021/04/05 22:56:04;;;;;;;;;36.50;31.75;;;;;;;;12102288;29;8998;-50
2021/04/05 23:02:08;;;;;;;;;36.25;30.75;;;;;;;;12101955;29;8862;-52
2021/04/05 23:08:15;;;;;;;;;29.75;29.50;;;;;;;;12102705;29;8914;-52
2021/04/05 23:14:37;;;;;;;;;31.75;30.00;;;;;;;;12056786;29;8869;-52
2021/04/05 23:21:12;;;;;;;;;34.50;34.50;;;;;;;;12057346;29;8869;-52
2021/04/05 23:27:17;;;;;;;;;31.25;29.75;;;;;;;;12084614;29;8897;-49
2021/04/05 23:33:27;;;;;;;;;44.50;39.50;;;;;;;;12101869;29;8855;-52
2021/04/05 23:39:39;;;;;;;;;42.25;38.50;;;;;;;;12099515;29;8894;-49
2021/04/05 23:45:41;;;;;;;;;37.75;34.00;;;;;;;;12101644;29;8931;-50
2021/04/05 23:51:44;;;;;;;;;37.25;35.50;;;;;;;;12100154;29;8886;-50
2021/04/05 23:57:55;;;;;;;;;37.25;35.50;;;;;;;;12100402;29;8870;-51
